createdAt,value
2022-10-06T08:06:35.566Z,97229.88
2022-10-06T08:09:03.547Z,97174.13
2022-10-06T08:11:31.519Z,97109.25
2022-10-06T08:13:59.714Z,97131.75
2022-10-06T08:16:30.260Z,97115.13
2022-10-06T08:18:59.949Z,97239.75
2022-10-06T08:21:29.272Z,97241.13
2022-10-06T08:23:59.517Z,97230.22
2022-10-06T08:26:28.691Z,97250.34
2022-10-06T08:29:00.344Z,97229.97
2022-10-06T08:31:28.138Z,97224.66
2022-10-06T08:33:57.699Z,97222.97
2022-10-06T08:36:31.587Z,97253.06
2022-10-06T08:39:01.654Z,97222.34
2022-10-06T08:41:43.170Z,97213.47
2022-10-06T08:44:23.216Z,97204.66
2022-10-06T08:46:56.993Z,97254.88
2022-10-06T08:49:26.920Z,97158.88
2022-10-06T08:52:02.128Z,97122.59
2022-10-06T08:54:39.265Z,97227.34
2022-10-06T08:57:15.460Z,97260.59
2022-10-06T08:59:47.284Z,97263.69
2022-10-06T09:02:27.218Z,97262.19
2022-10-06T09:04:56.298Z,97260.97
2022-10-06T09:07:30.806Z,97268.56
2022-10-06T09:10:15.176Z,97234.75
2022-10-06T09:12:48.951Z,97272.19
2022-10-06T09:15:30.940Z,97266.88
2022-10-06T09:18:02.728Z,97268.47
2022-10-06T09:20:35.194Z,97232.09
2022-10-06T09:23:05.517Z,97252.06
2022-10-06T09:25:34.973Z,97266.25
2022-10-06T09:28:04.114Z,97277.47
2022-10-06T09:30:31.779Z,97223.38
2022-10-06T09:33:02.689Z,97262.84
2022-10-06T09:35:32.781Z,97258.06
2022-10-06T09:38:08.267Z,97272.28
2022-10-06T09:40:41.988Z,97279.59
2022-10-06T09:43:21.268Z,97226.06
2022-10-06T09:45:51.487Z,97261.66
2022-10-06T09:48:24.955Z,97271.72
2022-10-06T09:51:12.489Z,97270.63
2022-10-06T09:53:40.532Z,97263.44
2022-10-06T09:56:17.573Z,97272.44
2022-10-06T09:58:56.337Z,97270.53
2022-10-06T10:01:26.548Z,97266.53
2022-10-06T10:06:45.622Z,97237.94
2022-10-06T10:09:25.896Z,97237.69
2022-10-06T10:12:27.632Z,97267.03
2022-10-06T10:14:58.789Z,97268.69
2022-10-06T10:17:48.657Z,97266.53
2022-10-06T10:20:36.650Z,97261.91
2022-10-06T10:23:08.292Z,97260.16
2022-10-06T10:25:46.797Z,97270.84
2022-10-06T10:28:33.877Z,97170.19
2022-10-06T10:31:09.405Z,97259.47
2022-10-06T10:33:49.800Z,97233.81
2022-10-06T10:36:36.006Z,97271.22
2022-10-06T10:39:07.935Z,97270.41
2022-10-06T10:41:42.171Z,97275.47
2022-10-06T10:44:21.301Z,97270.75
2022-10-06T10:46:52.444Z,97242.63
2022-10-06T10:49:26.872Z,97260.25
2022-10-06T10:51:57.961Z,97254.56
2022-10-06T10:54:31.522Z,97247.63
2022-10-06T10:56:59.757Z,97247.34
2022-10-06T10:59:33.427Z,97263.28
2022-10-06T11:02:05.755Z,97189.38
2022-10-06T11:04:39.005Z,97162.91
2022-10-06T11:07:16.941Z,97225.22
2022-10-06T11:09:55.273Z,97167.50
2022-10-06T11:12:37.512Z,97179.88
2022-10-06T11:15:14.630Z,97271.03
2022-10-06T11:17:50.131Z,97277.91
2022-10-06T11:20:37.801Z,97252.97
2022-10-06T11:23:22.492Z,97258.19
2022-10-06T11:25:59.956Z,97247.28
2022-10-06T11:28:34.995Z,97266.31
2022-10-06T11:31:12.133Z,97217.31
2022-10-06T11:33:47.974Z,97233.38
2022-10-06T11:36:25.876Z,97261.44
2022-10-06T11:39:01.627Z,97255.03
2022-10-06T11:41:34.862Z,97236.34
2022-10-06T11:44:07.577Z,97245.19
2022-10-06T11:46:45.162Z,97257.97
2022-10-06T11:49:53.288Z,97247.19
2022-10-06T11:52:55.247Z,97174.72
2022-10-06T11:55:28.953Z,97212.00
2022-10-06T11:58:41.281Z,97235.25
2022-10-06T12:01:08.348Z,97237.00
2022-10-06T12:03:48.024Z,97240.66
2022-10-06T12:06:58.470Z,97235.91
2022-10-06T12:09:53.499Z,97237.31
2022-10-06T12:13:07.261Z,97243.25
2022-10-06T12:19:16.801Z,97212.91
2022-10-06T12:21:54.570Z,97238.63
2022-10-06T12:24:31.218Z,97208.66
2022-10-06T12:27:25.069Z,97237.91
2022-10-06T12:30:01.597Z,97161.59
2022-10-06T12:32:50.756Z,97234.75
2022-10-06T12:35:34.702Z,97233.47
2022-10-06T12:38:06.037Z,97156.19
2022-10-06T12:41:01.718Z,97221.72
2022-10-06T12:43:54.855Z,97198.19
2022-10-06T12:46:28.588Z,97214.75
2022-10-06T12:49:05.290Z,97212.94
2022-10-06T12:51:38.891Z,97206.41
2022-10-06T12:54:15.196Z,97087.69
2022-10-06T12:56:44.558Z,97104.94
2022-10-06T12:59:25.820Z,97156.75
2022-10-06T13:01:55.961Z,97209.03
2022-10-06T13:04:42.998Z,97207.13
2022-10-06T13:07:17.648Z,97203.25
2022-10-06T13:09:46.432Z,97206.41
2022-10-06T13:12:28.759Z,97198.47
2022-10-06T13:15:17.609Z,97168.44
2022-10-06T13:17:49.010Z,97177.44
2022-10-06T13:20:24.068Z,97090.06
2022-10-06T13:23:01.651Z,97194.59
2022-10-06T13:25:42.325Z,97198.25
2022-10-06T13:28:25.178Z,97196.69
2022-10-06T13:30:57.827Z,97121.88
2022-10-06T13:33:28.337Z,97200.94
2022-10-06T13:35:56.677Z,97161.44
2022-10-06T13:38:26.197Z,97162.72
2022-10-06T13:41:05.200Z,97192.81
2022-10-06T13:43:37.408Z,97129.84
2022-10-06T13:46:10.535Z,97114.22
2022-10-06T13:48:45.725Z,97095.63
2022-10-06T13:51:20.187Z,97157.19
2022-10-06T13:53:49.431Z,97100.47
2022-10-06T13:56:35.681Z,97166.31
2022-10-06T13:59:34.487Z,97192.94
2022-10-06T14:02:21.943Z,97191.00
2022-10-06T14:05:23.721Z,97184.59
2022-10-06T14:07:52.579Z,97170.69
2022-10-06T14:12:55.223Z,97178.41
2022-10-06T14:15:25.702Z,97185.72
2022-10-06T14:17:55.893Z,97096.78
2022-10-06T14:20:38.402Z,97188.34
2022-10-06T14:23:33.555Z,97176.13
2022-10-06T14:26:02.635Z,97184.34
2022-10-06T14:28:30.444Z,97150.91
2022-10-06T14:30:58.642Z,97183.34
2022-10-06T14:33:26.756Z,97130.38
2022-10-06T14:35:54.510Z,97069.16
2022-10-06T14:38:24.535Z,97182.84
2022-10-06T14:40:52.296Z,97157.22
2022-10-06T14:43:21.406Z,97170.44
2022-10-06T14:45:49.108Z,97087.28
2022-10-06T14:48:16.805Z,97157.84
2022-10-06T14:50:46.746Z,97151.03
2022-10-06T14:53:16.804Z,97160.81
2022-10-06T14:55:45.354Z,97097.56
2022-10-06T14:58:13.265Z,97169.94
2022-10-06T15:00:43.326Z,97160.44
2022-10-06T15:03:11.131Z,97159.63
2022-10-06T15:05:59.352Z,97119.44
2022-10-06T15:08:26.120Z,97120.06
2022-10-06T15:10:54.298Z,97144.38
2022-10-06T15:13:22.077Z,97117.22
2022-10-06T15:15:58.739Z,97142.03
2022-10-06T15:18:27.231Z,97164.69
2022-10-06T15:20:55.126Z,97164.19
2022-10-06T15:23:22.827Z,97157.72
2022-10-06T15:26:11.447Z,97115.97
2022-10-06T15:28:56.492Z,97164.75
2022-10-06T15:31:26.698Z,97168.59
2022-10-06T15:33:55.102Z,97151.47
2022-10-06T15:36:25.087Z,97160.16
2022-10-06T15:38:54.439Z,97161.56
2022-10-06T15:41:22.636Z,97144.50
2022-10-06T15:43:56.146Z,97142.94
2022-10-06T15:46:30.748Z,97159.84
2022-10-06T15:49:00.888Z,97034.72
2022-10-06T15:51:30.194Z,97157.75
2022-10-06T15:53:59.020Z,97120.09
2022-10-06T15:56:28.504Z,97156.25
2022-10-06T15:58:56.405Z,97170.94
2022-10-06T16:01:38.598Z,97158.97
2022-10-06T16:04:12.171Z,97088.44
2022-10-06T16:06:43.709Z,97143.06
2022-10-06T16:09:13.302Z,97053.34
2022-10-06T16:11:41.045Z,97112.28
2022-10-06T16:14:09.659Z,97143.53
2022-10-06T16:16:43.431Z,97142.72
2022-10-06T16:19:11.955Z,97097.19
2022-10-06T16:21:40.180Z,97132.69
2022-10-06T16:24:08.235Z,97009.66
2022-10-06T16:26:36.679Z,97112.81
2022-10-06T16:29:04.467Z,97112.31
2022-10-06T16:31:32.750Z,97150.44
2022-10-06T16:34:01.937Z,97122.03
2022-10-06T16:36:29.651Z,97169.66
2022-10-06T16:38:57.573Z,97054.09
2022-10-06T16:41:25.814Z,97165.50
2022-10-06T16:43:54.750Z,97171.69
2022-10-06T16:46:24.367Z,97150.91
2022-10-06T16:48:54.297Z,97100.19
2022-10-06T16:51:24.727Z,97146.28
2022-10-06T16:53:54.401Z,97179.97
2022-10-06T16:56:24.365Z,97107.34
2022-10-06T16:58:53.898Z,97137.84
2022-10-06T17:01:23.862Z,97176.50
2022-10-06T17:03:58.524Z,97143.44
2022-10-06T17:06:27.838Z,97077.97
2022-10-06T17:08:56.577Z,97168.22
2022-10-06T17:11:25.746Z,97158.69
2022-10-06T17:13:56.399Z,97116.41
2022-10-06T17:16:29.380Z,97182.81
2022-10-06T17:18:58.358Z,97190.31
2022-10-06T17:21:46.146Z,97192.19
2022-10-06T17:24:14.939Z,97195.66
2022-10-06T17:26:44.186Z,97141.97
2022-10-06T17:29:14.909Z,97183.53
2022-10-06T17:31:44.433Z,97180.41
2022-10-06T17:34:18.196Z,97156.09
2022-10-06T17:36:50.850Z,97202.69
2022-10-06T17:39:20.787Z,97130.69
2022-10-06T17:41:50.458Z,97183.94
2022-10-06T17:44:22.958Z,97118.31
2022-10-06T17:46:57.740Z,97188.25
2022-10-06T17:49:26.419Z,97200.66
2022-10-06T17:51:56.482Z,97181.09
2022-10-06T17:54:26.953Z,97191.19
2022-10-06T17:56:56.760Z,97140.63
2022-10-06T17:59:28.570Z,97075.19
2022-10-06T18:01:57.450Z,97183.72
2022-10-06T18:04:26.512Z,97154.63
2022-10-06T18:06:56.281Z,97202.06
2022-10-06T18:09:24.373Z,97192.00
2022-10-06T18:11:55.870Z,97033.88
2022-10-06T18:14:26.031Z,97028.06
2022-10-06T18:17:03.772Z,97159.16
2022-10-06T18:19:33.780Z,97095.06
2022-10-06T18:22:04.799Z,97149.88
2022-10-06T18:24:33.112Z,97145.91
2022-10-06T18:27:01.759Z,97076.53
2022-10-06T18:29:32.020Z,97060.91
2022-10-06T18:32:27.773Z,97132.41
2022-10-06T18:37:37.417Z,97204.47
2022-10-06T18:40:08.533Z,97203.97
2022-10-06T18:42:36.337Z,97203.44
2022-10-06T18:45:21.507Z,97118.09
2022-10-06T18:48:06.651Z,97177.97
2022-10-06T18:50:35.115Z,97180.63
2022-10-06T18:53:04.829Z,97204.75
2022-10-06T18:55:32.608Z,97186.69
2022-10-06T18:58:00.634Z,97132.13
2022-10-06T19:00:28.621Z,97134.00
2022-10-06T19:02:56.818Z,97172.41
2022-10-06T19:05:25.392Z,97184.06
2022-10-06T19:07:53.354Z,97209.78
2022-10-06T19:10:22.681Z,97202.34
2022-10-06T19:12:50.532Z,97179.53
2022-10-06T19:15:21.017Z,97182.72
2022-10-06T19:18:00.369Z,97182.19
2022-10-06T19:20:28.266Z,97206.56
2022-10-06T19:22:56.043Z,97207.09
2022-10-06T19:25:26.774Z,97161.00
2022-10-06T19:27:54.523Z,97059.78
2022-10-06T19:30:22.970Z,97162.56
2022-10-06T19:32:52.301Z,97189.88
2022-10-06T19:35:20.101Z,97216.63
2022-10-06T19:37:47.929Z,97123.81
2022-10-06T19:40:15.655Z,97204.16
2022-10-06T19:42:50.853Z,97089.41
2022-10-06T19:45:20.662Z,97199.13
2022-10-06T19:47:48.608Z,97156.13
2022-10-06T19:50:17.618Z,97211.03
2022-10-06T19:52:47.425Z,97126.47
2022-10-06T19:55:40.902Z,97205.97
2022-10-06T19:58:25.550Z,97199.63
2022-10-06T20:01:22.261Z,97207.31
2022-10-06T20:03:50.099Z,97204.38
2022-10-06T20:06:18.179Z,97179.94
2022-10-06T20:08:46.874Z,97203.28
2022-10-06T20:11:16.695Z,97163.75
2022-10-06T20:13:46.554Z,97189.47
2022-10-06T20:16:17.273Z,97183.59
2022-10-06T20:18:46.846Z,97210.16
2022-10-06T20:21:16.950Z,97199.28
2022-10-06T20:23:49.103Z,97169.28
2022-10-06T20:26:18.692Z,97079.03
2022-10-06T20:28:48.169Z,97195.53
2022-10-06T20:31:21.399Z,97079.09
2022-10-06T20:33:50.309Z,97197.38
2022-10-06T20:36:18.871Z,97083.19
2022-10-06T20:39:05.006Z,97198.38
2022-10-06T20:41:33.587Z,97191.19
2022-10-06T20:44:04.881Z,97152.94
2022-10-06T20:46:34.726Z,97167.53
2022-10-06T20:49:05.065Z,97196.25
2022-10-06T20:51:33.242Z,97204.75
2022-10-06T20:54:01.607Z,97129.41
2022-10-06T20:56:29.399Z,97105.56
2022-10-06T20:58:57.524Z,97131.09
2022-10-06T21:01:26.930Z,97130.59
2022-10-06T21:03:55.468Z,97170.66
2022-10-06T21:06:24.622Z,97148.94
2022-10-06T21:08:52.938Z,97109.69
2022-10-06T21:11:22.809Z,97181.06
2022-10-06T21:13:52.471Z,97180.00
2022-10-06T21:16:21.259Z,97108.44
2022-10-06T21:18:50.733Z,97180.00
2022-10-06T21:21:18.621Z,97103.44
2022-10-06T21:23:50.244Z,97058.13
2022-10-06T21:26:20.634Z,97161.78
2022-10-06T21:28:48.854Z,97163.38
2022-10-06T21:31:18.355Z,97088.63
2022-10-06T21:33:47.214Z,97053.59
2022-10-06T21:36:18.812Z,97163.63
2022-10-06T21:38:47.918Z,97155.69
2022-10-06T21:41:37.002Z,97053.69
2022-10-06T21:44:06.626Z,97157.03
2022-10-06T21:46:36.365Z,97016.63
2022-10-06T21:49:06.808Z,97127.63
2022-10-06T21:51:36.088Z,97072.78
2022-10-06T21:54:04.711Z,97093.97
2022-10-06T21:56:34.377Z,97141.41
2022-10-06T21:59:02.716Z,97148.28
2022-10-06T22:01:32.743Z,97141.94
2022-10-06T22:04:04.007Z,97141.91
2022-10-06T22:06:33.794Z,97140.88
2022-10-06T22:09:04.512Z,97113.34
2022-10-06T22:11:34.869Z,97140.06
2022-10-06T22:14:04.390Z,97135.84
2022-10-06T22:16:34.904Z,97132.94
2022-10-06T22:19:04.730Z,97137.16
2022-10-06T22:21:34.600Z,97127.13
2022-10-06T22:24:05.917Z,97093.19
2022-10-06T22:26:37.479Z,97134.28
2022-10-06T22:29:06.561Z,97126.03
2022-10-06T22:31:34.561Z,97045.81
2022-10-06T22:34:04.831Z,97126.31
2022-10-06T22:36:33.354Z,97121.81
2022-10-06T22:39:03.193Z,97120.22
2022-10-06T22:41:31.345Z,97092.69
2022-10-06T22:44:00.370Z,97111.75
2022-10-06T22:46:30.424Z,97112.81
2022-10-06T22:48:58.418Z,97033.38
2022-10-06T22:51:26.966Z,97029.13
2022-10-06T22:53:57.898Z,96998.97
2022-10-06T22:56:29.069Z,97002.16
2022-10-06T22:58:59.894Z,97092.69
2022-10-06T23:01:29.872Z,97058.78
2022-10-06T23:03:58.225Z,97089.50
2022-10-06T23:06:27.012Z,97067.78
2022-10-06T23:08:54.871Z,97084.22
2022-10-06T23:11:23.442Z,97077.03
2022-10-06T23:13:53.257Z,97058.53
2022-10-06T23:16:22.083Z,97054.56
2022-10-06T23:18:50.542Z,97031.78
2022-10-06T23:21:21.926Z,97052.44
2022-10-06T23:23:51.620Z,97057.75
2022-10-06T23:26:20.363Z,96975.16
2022-10-06T23:28:54.233Z,97071.50
2022-10-06T23:31:22.397Z,97069.91
2022-10-06T23:33:50.666Z,97002.41
2022-10-06T23:36:19.441Z,97011.16
2022-10-06T23:38:48.009Z,96980.72
2022-10-06T23:41:16.415Z,97067.00
2022-10-06T23:43:44.777Z,97029.66
2022-10-06T23:46:14.711Z,96991.56
2022-10-06T23:48:43.131Z,96924.91
2022-10-06T23:51:12.849Z,97039.72
2022-10-06T23:53:41.119Z,96935.47
2022-10-06T23:56:10.092Z,97051.88
2022-10-06T23:58:38.223Z,97044.19
